Kezdőlap
METAR-TAF:

METAR-TAF

Repülőterek :

Penn Valley Airport

Selinsgrove, Pennsylvania, Amerikai Egyesült Államok

földrajzi szélesség: 40-49-09N, földrajzi hosszúság: 076-51-58W, magasság: 137 m

Jelenlegi meteorológiai megfigyelések

A jelentés 1 órával és 10 perccel ezelõtt készült, 16:53 UTC
Dél-délkeleti szél 6 kt
Hőmérséklet 9°C
Páratartalom 31%
Légköri nyomás 1022 hPa
Látótávolság: 16.1 km
Derült ég

METAR: KSEG 231653Z AUTO 15006KT 10SM CLR 09/M07 A3017 RMK AO2 SLP221 T00891072

Idő: 13:03 (18:03 UTC)


TAF: hiányzik

Meteorológiai megfigyelések és előrejelzések több, mint 4000 repülőtéren (METAR és TAF jelentéseket).

A térképen piros és sárga pontok jelzik az elérhető meteorológiai állomásokat.

Mozgassa az egeret a pont fölött, hogy megjelenjen az állomás neve.

Azután kattintson az időjárási megfigyelések és előrejelzések megtekintéséhez.

A térkép megváltoztatása: kattintson a fekete keresztel jelölt zöld gombra ráközelítéshez, a vonallal jelölt zöld gombra távolításhoz, vagy a zöld nyilakra a szomszédos térképek eléréséhez.


METAR-TAF: